Terminal Aerodrome Forecast
Issued by NWS Twin Cities, MN

Home | Current Version | Previous Version | Text Only | Print | Product List | Glossary On
Versions: 1 2 3 4 5 6 7 8 9 10 11 12 13 14
000
FTUS43 KMPX 061120
TAFEAU
TAF
KEAU 061120Z 0612/0712 13011KT 5SM BR VCSH BKN007 OVC015
     FM061600 13012G18KT P6SM OVC015
     FM061800 14011G20KT P6SM SCT025 BKN150
     FM070200 15011KT P6SM VCSH BKN050
     FM070800 15010KT P6SM BKN040 OVC100=

USA.gov is the U.S. government's official web portal to all federal, state and local government web resources and services.